createdAt,value
2022-09-26T00:01:34.321Z,66.80
2022-09-26T00:04:15.757Z,66.92
2022-09-26T00:06:43.320Z,66.99
2022-09-26T00:09:11.656Z,67.31
2022-09-26T00:11:39.402Z,67.24
2022-09-26T00:14:18.817Z,67.38
2022-09-26T00:16:47.686Z,66.77
2022-09-26T00:19:15.418Z,66.71
2022-09-26T00:21:42.753Z,66.75
2022-09-26T00:24:10.311Z,66.42
2022-09-26T00:26:38.285Z,66.51
2022-09-26T00:29:08.780Z,66.31
2022-09-26T00:31:40.011Z,67.03
2022-09-26T00:34:07.723Z,67.08
2022-09-26T00:36:38.345Z,67.26
2022-09-26T00:39:10.753Z,67.18
2022-09-26T00:41:38.646Z,67.01
2022-09-26T00:44:33.878Z,67.05
2022-09-26T00:47:01.853Z,66.36
2022-09-26T00:50:26.168Z,66.56
2022-09-26T00:52:59.079Z,66.68
2022-09-26T00:55:31.443Z,67.13
2022-09-26T00:58:20.030Z,67.11
2022-09-26T01:00:48.297Z,67.00
2022-09-26T01:03:16.932Z,67.13
2022-09-26T01:05:45.432Z,66.90
2022-09-26T01:08:14.559Z,66.97
2022-09-26T01:10:43.065Z,67.31
2022-09-26T01:13:10.366Z,66.95
2022-09-26T01:15:38.933Z,66.99
2022-09-26T01:18:07.514Z,67.05
2022-09-26T01:20:44.095Z,67.03
2022-09-26T01:23:23.900Z,67.02
2022-09-26T01:26:14.173Z,66.87
2022-09-26T01:29:02.936Z,66.95
2022-09-26T01:32:24.661Z,66.88
2022-09-26T01:35:12.518Z,66.95
2022-09-26T01:38:15.665Z,66.91
2022-09-26T01:40:56.377Z,66.54
2022-09-26T01:43:36.115Z,66.80
2022-09-26T01:46:22.547Z,66.81
2022-09-26T01:48:54.847Z,66.86
2022-09-26T01:51:49.015Z,66.60
2022-09-26T01:54:28.684Z,67.17
2022-09-26T01:56:58.358Z,66.97
2022-09-26T01:59:34.183Z,67.14
2022-09-26T02:02:08.308Z,66.76
2022-09-26T02:04:39.128Z,67.21
2022-09-26T02:07:14.204Z,67.09
2022-09-26T02:10:13.174Z,67.53
2022-09-26T02:12:41.961Z,67.39
2022-09-26T02:15:11.874Z,68.12
2022-09-26T02:17:44.419Z,68.28
2022-09-26T02:20:17.215Z,68.13
2022-09-26T02:22:44.669Z,67.89
2022-09-26T02:25:15.718Z,67.42
2022-09-26T02:27:43.303Z,67.75
2022-09-26T02:30:19.708Z,67.44
2022-09-26T02:32:47.402Z,67.38
2022-09-26T02:35:33.528Z,67.71
2022-09-26T02:38:02.584Z,67.84
2022-09-26T02:40:51.262Z,68.08
2022-09-26T02:43:24.083Z,67.81
2022-09-26T02:45:57.439Z,68.04
2022-09-26T02:48:30.764Z,67.30
2022-09-26T02:51:16.980Z,67.17
2022-09-26T02:53:47.499Z,67.56
2022-09-26T02:56:23.503Z,67.77
2022-09-26T02:59:04.856Z,67.85
2022-09-26T03:01:54.026Z,67.76
2022-09-26T03:04:34.292Z,67.51
2022-09-26T03:07:07.636Z,67.67
2022-09-26T03:09:36.976Z,67.86
2022-09-26T03:12:06.455Z,68.05
2022-09-26T03:14:34.959Z,68.02
2022-09-26T03:17:03.368Z,67.68
2022-09-26T03:19:41.923Z,67.16
2022-09-26T03:22:09.771Z,67.35
2022-09-26T03:24:41.015Z,67.27
2022-09-26T03:27:11.841Z,67.55
2022-09-26T03:30:02.880Z,67.10
2022-09-26T03:32:30.508Z,66.82
2022-09-26T03:34:58.253Z,66.62
2022-09-26T03:37:25.672Z,67.02
2022-09-26T03:39:53.043Z,67.01
2022-09-26T03:42:22.648Z,66.86
2022-09-26T03:44:50.076Z,67.19
2022-09-26T03:47:18.986Z,67.00
2022-09-26T03:49:47.657Z,67.17
2022-09-26T03:52:16.946Z,67.70
2022-09-26T03:54:45.113Z,67.59
2022-09-26T03:57:13.348Z,67.72
2022-09-26T03:59:41.030Z,67.79
2022-09-26T04:02:08.550Z,67.74
2022-09-26T04:04:37.248Z,67.75
2022-09-26T04:07:05.105Z,68.00
2022-09-26T04:09:32.527Z,67.78
2022-09-26T04:12:00.700Z,67.47
2022-09-26T04:14:28.033Z,67.51
2022-09-26T04:16:56.051Z,67.77
2022-09-26T04:19:23.918Z,67.24
2022-09-26T04:21:52.134Z,67.24
2022-09-26T04:24:21.289Z,66.85
2022-09-26T04:26:48.919Z,67.22
2022-09-26T04:29:16.757Z,67.03
2022-09-26T04:31:45.545Z,67.03
2022-09-26T04:34:14.888Z,67.23
2022-09-26T04:36:42.744Z,67.06
2022-09-26T04:39:10.544Z,67.37
2022-09-26T04:41:38.709Z,67.75
2022-09-26T04:44:06.067Z,67.12
2022-09-26T04:46:33.726Z,67.24
2022-09-26T04:49:02.148Z,67.62
2022-09-26T04:51:31.570Z,67.36
2022-09-26T04:53:59.057Z,67.74
2022-09-26T04:56:27.951Z,68.04
2022-09-26T04:58:57.498Z,67.83
2022-09-26T05:01:26.016Z,67.74
2022-09-26T05:03:57.610Z,67.55
2022-09-26T05:06:25.268Z,67.54
2022-09-26T05:08:54.721Z,67.77
2022-09-26T05:11:24.443Z,68.12
2022-09-26T05:13:53.928Z,68.09
2022-09-26T05:16:22.589Z,68.04
2022-09-26T05:18:51.841Z,68.04
2022-09-26T05:21:19.504Z,67.40
2022-09-26T05:24:05.736Z,67.33
2022-09-26T05:26:40.680Z,67.17
2022-09-26T05:29:09.472Z,67.11
2022-09-26T05:31:39.418Z,67.69
2022-09-26T05:34:09.780Z,67.52
2022-09-26T05:36:37.485Z,67.75
2022-09-26T05:39:06.006Z,67.38
2022-09-26T05:41:33.795Z,67.40
2022-09-26T05:44:02.165Z,67.26
2022-09-26T05:46:31.429Z,67.30
2022-09-26T05:49:00.047Z,67.43
2022-09-26T05:51:29.326Z,67.94
2022-09-26T05:53:57.369Z,68.22
2022-09-26T05:56:48.984Z,69.10
2022-09-26T05:59:19.034Z,67.98
2022-09-26T06:01:48.176Z,67.77
2022-09-26T06:04:16.520Z,67.47
2022-09-26T06:06:48.691Z,67.50
2022-09-26T06:09:17.509Z,67.38
2022-09-26T06:11:54.092Z,67.85
2022-09-26T06:14:24.398Z,67.27
2022-09-26T06:16:51.916Z,67.95
2022-09-26T06:19:22.983Z,68.18
2022-09-26T06:21:50.990Z,68.24
2022-09-26T06:24:19.268Z,68.54
2022-09-26T06:26:47.408Z,68.18
2022-09-26T06:29:15.179Z,67.91
2022-09-26T06:31:43.264Z,67.77
2022-09-26T06:34:14.577Z,68.04
2022-09-26T06:36:42.708Z,67.61
2022-09-26T06:39:10.248Z,67.42
2022-09-26T06:41:37.748Z,67.76
2022-09-26T06:44:09.232Z,67.72
2022-09-26T06:46:39.097Z,68.35
2022-09-26T06:49:07.899Z,68.19
2022-09-26T06:51:38.233Z,67.94
2022-09-26T06:54:05.824Z,67.66
2022-09-26T06:56:33.425Z,68.11
2022-09-26T06:59:00.837Z,68.10
2022-09-26T07:01:28.793Z,67.79
2022-09-26T07:03:57.122Z,68.07
2022-09-26T07:06:24.552Z,67.75
2022-09-26T07:09:02.238Z,68.01
2022-09-26T07:11:56.298Z,67.96
2022-09-26T07:14:20.859Z,68.02
2022-09-26T07:16:51.907Z,68.16
2022-09-26T07:19:19.655Z,68.18
2022-09-26T07:21:48.100Z,67.91
2022-09-26T07:24:18.410Z,67.52
2022-09-26T07:26:46.002Z,67.91
2022-09-26T07:29:13.392Z,67.67
2022-09-26T07:31:41.113Z,68.38
2022-09-26T07:34:09.027Z,68.20
2022-09-26T07:36:37.162Z,67.66
2022-09-26T07:39:04.829Z,68.01
2022-09-26T07:41:33.086Z,68.21
2022-09-26T07:47:07.843Z,67.60
2022-09-26T07:49:54.344Z,67.71
2022-09-26T07:52:22.882Z,67.32
2022-09-26T07:54:51.295Z,67.84
2022-09-26T07:57:19.572Z,68.44
2022-09-26T07:59:50.369Z,68.09
2022-09-26T08:02:26.427Z,68.10
2022-09-26T08:05:00.182Z,67.52
2022-09-26T08:07:29.959Z,68.10
2022-09-26T08:09:59.052Z,68.26
2022-09-26T08:12:28.336Z,68.47
2022-09-26T08:14:56.369Z,68.18
2022-09-26T08:17:25.092Z,67.79
2022-09-26T08:19:52.672Z,67.99
2022-09-26T08:22:20.167Z,67.35
2022-09-26T08:24:50.828Z,67.63
2022-09-26T08:27:32.074Z,67.84
2022-09-26T08:30:00.733Z,68.05
2022-09-26T08:32:30.414Z,67.88
2022-09-26T08:34:58.242Z,67.85
2022-09-26T08:37:28.864Z,67.89
2022-09-26T08:39:57.758Z,67.77
2022-09-26T08:42:50.508Z,66.87
2022-09-26T08:45:47.954Z,66.88
2022-09-26T08:49:02.952Z,66.68
2022-09-26T08:51:34.128Z,67.19
2022-09-26T08:54:16.545Z,68.06
2022-09-26T08:56:47.952Z,67.66
2022-09-26T08:59:28.200Z,68.09
2022-09-26T09:02:00.288Z,67.71
2022-09-26T09:05:04.494Z,66.57
2022-09-26T09:07:32.466Z,66.42
2022-09-26T09:10:04.039Z,65.70
2022-09-26T09:13:09.921Z,65.85
2022-09-26T09:16:01.759Z,64.84
2022-09-26T09:18:49.928Z,64.10
2022-09-26T09:21:32.053Z,64.68
2022-09-26T09:24:18.592Z,64.74
2022-09-26T09:30:15.767Z,65.39
2022-09-26T09:32:59.234Z,63.62
2022-09-26T09:35:49.788Z,63.49
2022-09-26T09:38:23.328Z,64.02
2022-09-26T09:40:57.847Z,64.53
2022-09-26T09:43:54.413Z,63.96
2022-09-26T09:46:30.458Z,63.22
2022-09-26T09:48:58.448Z,63.11
2022-09-26T09:51:36.925Z,63.39
2022-09-26T09:54:30.871Z,62.10
2022-09-26T09:57:26.669Z,61.63
2022-09-26T10:00:09.786Z,62.14
2022-09-26T10:03:01.617Z,61.76
2022-09-26T10:05:42.563Z,61.69
2022-09-26T10:08:25.788Z,60.94
2022-09-26T10:11:08.398Z,61.18
2022-09-26T10:13:43.446Z,61.79
2022-09-26T10:16:16.770Z,60.12
2022-09-26T10:18:58.256Z,59.76
2022-09-26T10:21:48.709Z,60.68
2022-09-26T10:24:46.706Z,57.82
2022-09-26T10:27:22.521Z,59.71
2022-09-26T10:30:00.493Z,59.65
2022-09-26T10:32:29.286Z,59.74
2022-09-26T10:35:19.809Z,59.71
2022-09-26T10:38:01.609Z,58.79
2022-09-26T10:40:47.105Z,59.22
2022-09-26T10:43:41.246Z,58.40
2022-09-26T10:46:14.767Z,59.14
2022-09-26T10:48:59.568Z,58.28
2022-09-26T10:51:32.682Z,59.65
2022-09-26T10:54:13.461Z,57.92
2022-09-26T10:56:45.983Z,57.85
2022-09-26T10:59:16.587Z,56.77
2022-09-26T11:01:51.303Z,55.79
2022-09-26T11:04:39.888Z,56.61
2022-09-26T11:07:10.480Z,56.60
2022-09-26T11:09:38.408Z,55.05
2022-09-26T11:12:32.374Z,56.87
2022-09-26T11:15:19.866Z,57.16
2022-09-26T11:17:49.368Z,58.05
2022-09-26T11:20:38.155Z,57.14
2022-09-26T11:23:27.542Z,58.39
2022-09-26T11:26:29.732Z,57.36
2022-09-26T11:29:20.096Z,57.05
2022-09-26T11:31:49.022Z,56.16
2022-09-26T11:34:31.346Z,57.91
2022-09-26T11:37:31.016Z,55.36
2022-09-26T11:40:10.025Z,54.57
2022-09-26T11:42:54.821Z,54.11
2022-09-26T11:45:22.347Z,51.86
2022-09-26T11:48:13.363Z,52.61
2022-09-26T11:50:55.412Z,53.58
2022-09-26T11:53:48.780Z,52.13
2022-09-26T11:56:27.192Z,52.84
2022-09-26T11:59:02.229Z,52.79
2022-09-26T12:01:55.092Z,51.30
2022-09-26T12:04:37.632Z,53.34
2022-09-26T12:07:10.568Z,52.86
2022-09-26T12:10:06.260Z,52.74
2022-09-26T12:12:49.631Z,52.11
2022-09-26T12:15:43.414Z,52.73
2022-09-26T12:18:13.769Z,52.62
2022-09-26T12:21:02.808Z,52.37
2022-09-26T12:23:38.893Z,52.61
2022-09-26T12:26:17.921Z,52.05
2022-09-26T12:29:04.597Z,51.92
2022-09-26T12:31:50.507Z,53.20
2022-09-26T12:34:52.019Z,52.16
2022-09-26T12:37:39.219Z,52.00
2022-09-26T12:41:02.329Z,53.36
2022-09-26T12:43:58.990Z,53.05
2022-09-26T12:46:33.551Z,52.34
2022-09-26T12:49:07.591Z,52.29
2022-09-26T12:51:42.796Z,52.34
2022-09-26T12:54:34.138Z,53.52
2022-09-26T12:57:22.297Z,54.43
2022-09-26T13:00:13.011Z,54.32
2022-09-26T13:03:04.830Z,52.71
2022-09-26T13:06:08.932Z,53.05
2022-09-26T13:09:15.879Z,54.19
2022-09-26T13:11:58.359Z,54.50
2022-09-26T13:14:38.684Z,54.82
2022-09-26T13:17:15.488Z,53.53
2022-09-26T13:19:51.469Z,53.57
2022-09-26T13:22:28.525Z,51.50
2022-09-26T13:25:01.850Z,52.54
2022-09-26T13:27:36.150Z,52.86
2022-09-26T13:30:08.158Z,52.93
2022-09-26T13:32:47.960Z,52.78
2022-09-26T13:35:23.672Z,52.15
2022-09-26T13:38:08.285Z,52.40
2022-09-26T13:40:57.089Z,51.99
2022-09-26T13:43:43.739Z,52.51
2022-09-26T13:46:18.013Z,51.69
2022-09-26T13:48:58.910Z,51.26
2022-09-26T13:51:40.305Z,51.37
2022-09-26T13:54:20.413Z,52.15
2022-09-26T13:56:51.692Z,52.47
2022-09-26T13:59:19.349Z,51.04
2022-09-26T14:02:25.164Z,52.24
2022-09-26T14:04:54.306Z,52.06
2022-09-26T14:08:04.968Z,51.74
2022-09-26T14:10:34.715Z,52.30
2022-09-26T14:13:15.572Z,52.09
2022-09-26T14:15:49.456Z,51.81
2022-09-26T14:18:54.913Z,53.32
2022-09-26T14:21:46.388Z,52.60
2022-09-26T14:24:30.700Z,51.56
2022-09-26T14:27:10.533Z,52.45
2022-09-26T14:29:42.317Z,51.42
2022-09-26T14:32:10.345Z,51.81
2022-09-26T14:34:44.585Z,52.02
2022-09-26T14:37:26.904Z,51.34
2022-09-26T14:39:59.969Z,52.03
2022-09-26T14:42:31.715Z,51.52
2022-09-26T14:45:01.997Z,51.31
2022-09-26T14:47:40.064Z,52.21
2022-09-26T14:50:14.936Z,51.44
2022-09-26T14:52:53.288Z,51.03
2022-09-26T14:55:20.791Z,51.82
2022-09-26T14:57:48.636Z,51.84
2022-09-26T15:00:35.912Z,52.01
2022-09-26T15:03:27.469Z,53.00
2022-09-26T15:05:55.328Z,53.46
2022-09-26T15:08:26.496Z,54.07
2022-09-26T15:10:57.033Z,54.16
2022-09-26T15:13:27.259Z,53.42
2022-09-26T15:16:19.494Z,53.30
2022-09-26T15:18:48.434Z,51.74
2022-09-26T15:21:28.519Z,52.17
2022-09-26T15:23:57.517Z,52.67
2022-09-26T15:26:27.483Z,53.21
2022-09-26T15:28:56.664Z,53.21
2022-09-26T15:31:27.029Z,53.78
2022-09-26T15:34:00.321Z,54.47
2022-09-26T15:36:32.215Z,54.55
2022-09-26T15:39:00.436Z,54.07
2022-09-26T15:41:46.817Z,54.15
2022-09-26T15:44:23.523Z,54.47
2022-09-26T15:46:51.227Z,55.03
2022-09-26T15:49:21.374Z,55.04
2022-09-26T15:51:53.221Z,55.27
2022-09-26T15:54:23.776Z,56.38
2022-09-26T15:56:51.128Z,56.87
2022-09-26T15:59:39.995Z,56.23
2022-09-26T16:02:22.514Z,56.58
2022-09-26T16:04:52.037Z,56.08
2022-09-26T16:07:23.163Z,56.38
2022-09-26T16:09:51.464Z,56.11
2022-09-26T16:12:23.680Z,56.16
2022-09-26T16:15:00.197Z,56.52
2022-09-26T16:17:36.198Z,57.40
2022-09-26T16:20:09.654Z,58.06
2022-09-26T16:22:36.899Z,58.19
2022-09-26T16:25:23.104Z,58.30
2022-09-26T16:27:52.662Z,58.29
2022-09-26T16:30:23.667Z,58.88
2022-09-26T16:33:21.422Z,59.56
2022-09-26T16:35:49.091Z,59.68
2022-09-26T16:38:31.595Z,59.50
2022-09-26T16:41:09.666Z,59.55
2022-09-26T16:43:37.775Z,59.53
2022-09-26T16:46:14.744Z,59.58
2022-09-26T16:48:49.558Z,59.99
2022-09-26T16:51:39.798Z,59.97
2022-09-26T16:54:21.797Z,60.32
2022-09-26T16:56:52.873Z,60.52
2022-09-26T16:59:23.214Z,60.89
2022-09-26T17:01:54.120Z,60.63
2022-09-26T17:04:31.294Z,60.46
2022-09-26T17:06:59.743Z,60.56
2022-09-26T17:09:31.193Z,60.55
2022-09-26T17:12:27.760Z,60.59
2022-09-26T17:14:56.774Z,60.82
2022-09-26T17:17:30.533Z,60.90
2022-09-26T17:19:59.763Z,61.10
2022-09-26T17:22:28.428Z,61.48
2022-09-26T17:24:55.724Z,61.27
2022-09-26T17:27:27.028Z,61.09
2022-09-26T17:29:59.528Z,61.54
2022-09-26T17:32:39.125Z,61.46
2022-09-26T17:35:25.847Z,61.14
2022-09-26T17:37:54.198Z,61.20
2022-09-26T17:40:24.596Z,61.30
2022-09-26T17:43:01.031Z,61.62
2022-09-26T17:45:36.425Z,61.80
2022-09-26T17:48:15.892Z,61.85
2022-09-26T17:50:43.520Z,61.77
2022-09-26T17:53:17.253Z,61.83
2022-09-26T17:55:44.821Z,61.98
2022-09-26T17:58:12.224Z,61.80
2022-09-26T18:00:40.330Z,61.82
2022-09-26T18:03:14.561Z,61.97
2022-09-26T18:05:46.235Z,62.13
2022-09-26T18:08:21.532Z,62.22
2022-09-26T18:13:24.989Z,62.56
2022-09-26T18:15:55.905Z,62.64
2022-09-26T18:18:24.824Z,62.29
2022-09-26T18:20:52.785Z,62.43
2022-09-26T18:23:23.209Z,62.58
2022-09-26T18:25:52.243Z,62.55
2022-09-26T18:28:22.156Z,62.38
2022-09-26T18:30:56.883Z,62.66
2022-09-26T18:33:27.752Z,62.70
2022-09-26T18:35:55.497Z,62.61
2022-09-26T18:38:22.828Z,62.50
2022-09-26T18:40:55.113Z,62.64
2022-09-26T18:43:23.976Z,62.73
2022-09-26T18:45:52.066Z,62.50
2022-09-26T18:48:27.519Z,62.66
2022-09-26T18:50:57.293Z,62.85
2022-09-26T18:53:29.320Z,62.90
2022-09-26T18:56:15.525Z,62.88
2022-09-26T18:58:43.816Z,62.90
2022-09-26T19:01:34.098Z,62.95
2022-09-26T19:04:04.383Z,63.28
2022-09-26T19:06:37.206Z,63.34
2022-09-26T19:09:07.690Z,63.33
2022-09-26T19:11:36.176Z,63.53
2022-09-26T19:14:18.151Z,63.71
2022-09-26T19:16:48.523Z,63.80
2022-09-26T19:19:16.843Z,63.79
2022-09-26T19:22:13.214Z,63.81
2022-09-26T19:25:00.431Z,63.52
2022-09-26T19:27:57.198Z,63.37
2022-09-26T19:30:24.841Z,63.25
2022-09-26T19:32:53.312Z,63.24
2022-09-26T19:35:30.344Z,63.40
2022-09-26T19:37:58.922Z,63.11
2022-09-26T19:40:27.725Z,63.26
2022-09-26T19:42:57.130Z,63.10
2022-09-26T19:45:25.944Z,63.58
2022-09-26T19:47:54.653Z,63.58
2022-09-26T19:50:25.325Z,63.36
2022-09-26T19:52:54.164Z,63.36
2022-09-26T19:55:26.638Z,63.77
2022-09-26T19:57:57.405Z,63.95
2022-09-26T20:00:26.240Z,63.95
2022-09-26T20:02:54.319Z,64.36
2022-09-26T20:05:24.553Z,64.43
2022-09-26T20:07:52.385Z,64.36
2022-09-26T20:10:25.131Z,63.53
2022-09-26T20:12:53.789Z,63.99
2022-09-26T20:15:21.420Z,63.80
2022-09-26T20:17:49.223Z,64.00
2022-09-26T20:20:18.658Z,63.89
2022-09-26T20:22:56.760Z,63.50
2022-09-26T20:25:30.952Z,63.31
2022-09-26T20:27:59.640Z,63.28
2022-09-26T20:30:45.562Z,63.16
2022-09-26T20:33:13.299Z,63.18
2022-09-26T20:35:45.312Z,63.18
2022-09-26T20:38:15.693Z,63.37
2022-09-26T20:40:42.965Z,63.68
2022-09-26T20:43:15.174Z,63.96
2022-09-26T20:45:44.026Z,64.12
2022-09-26T20:48:23.212Z,64.35
2022-09-26T20:50:51.403Z,64.17
2022-09-26T20:53:20.090Z,64.46
2022-09-26T20:55:47.979Z,64.62
2022-09-26T20:58:15.527Z,64.66
2022-09-26T21:00:43.527Z,64.79
2022-09-26T21:03:12.366Z,64.90
2022-09-26T21:05:40.101Z,64.65
2022-09-26T21:08:17.924Z,64.74
2022-09-26T21:10:45.473Z,64.89
2022-09-26T21:13:12.788Z,64.51
2022-09-26T21:15:43.094Z,64.24
2022-09-26T21:18:22.572Z,64.23
2022-09-26T21:20:50.207Z,64.81
2022-09-26T21:23:19.964Z,64.77
2022-09-26T21:25:47.260Z,64.54
2022-09-26T21:28:26.275Z,64.26
2022-09-26T21:30:57.456Z,64.27
2022-09-26T21:33:24.797Z,64.44
2022-09-26T21:35:52.459Z,64.68
2022-09-26T21:38:20.499Z,65.00
2022-09-26T21:40:50.356Z,64.86
2022-09-26T21:43:20.085Z,65.47
2022-09-26T21:45:47.876Z,65.27
2022-09-26T21:48:15.786Z,65.44
2022-09-26T21:50:52.944Z,65.58
2022-09-26T21:53:37.640Z,65.16
2022-09-26T21:56:09.596Z,65.46
2022-09-26T21:58:37.900Z,65.07
2022-09-26T22:01:05.342Z,65.16
2022-09-26T22:03:33.053Z,65.07
2022-09-26T22:06:04.872Z,65.41
2022-09-26T22:08:54.693Z,65.65
2022-09-26T22:11:22.039Z,65.16
2022-09-26T22:13:49.624Z,65.52
2022-09-26T22:16:17.079Z,65.30
2022-09-26T22:18:44.395Z,65.24
2022-09-26T22:21:12.607Z,65.21
2022-09-26T22:23:40.082Z,65.27
2022-09-26T22:26:07.802Z,65.37
2022-09-26T22:28:35.707Z,65.37
2022-09-26T22:31:04.251Z,65.26
2022-09-26T22:33:31.852Z,65.25
2022-09-26T22:36:03.126Z,65.16
2022-09-26T22:38:30.529Z,64.98
2022-09-26T22:41:03.121Z,65.00
2022-09-26T22:43:31.637Z,65.11
2022-09-26T22:46:07.579Z,65.27
2022-09-26T22:48:37.962Z,65.52
2022-09-26T22:51:05.873Z,65.65
2022-09-26T22:53:35.277Z,65.64
2022-09-26T22:56:11.303Z,65.44
2022-09-26T22:58:44.765Z,64.92
2022-09-26T23:01:18.179Z,64.93
2022-09-26T23:03:45.990Z,64.82
2022-09-26T23:06:13.714Z,65.05
2022-09-26T23:08:41.063Z,64.72
2022-09-26T23:11:11.455Z,65.15
2022-09-26T23:13:39.582Z,65.16
2022-09-26T23:16:08.889Z,64.98
2022-09-26T23:18:37.165Z,65.24
2022-09-26T23:21:08.685Z,64.69
2022-09-26T23:23:36.606Z,65.01
2022-09-26T23:26:05.749Z,64.85
2022-09-26T23:28:33.779Z,64.76
2022-09-26T23:31:08.690Z,64.78
2022-09-26T23:33:37.012Z,64.77
2022-09-26T23:36:05.352Z,64.64
2022-09-26T23:38:33.249Z,64.78
2022-09-26T23:41:00.936Z,64.80
2022-09-26T23:43:28.323Z,64.72
2022-09-26T23:45:55.719Z,64.62
2022-09-26T23:48:23.316Z,64.41
2022-09-26T23:50:50.736Z,64.33
2022-09-26T23:53:18.020Z,64.65
2022-09-26T23:55:45.611Z,64.51
2022-09-26T23:58:12.943Z,64.59
